This is the latest recevied weather packets stored in our database for station/object KF4ZNO-13. If no packets are shown the sender has not sent any weather packets the latest 10 day(s).
| Time | Temp. | Humidity | Pressure | Rain* | Wind** | Luminosity | Snow |
|---|---|---|---|---|---|---|---|
| 1778141440 | 23.89° C | 89% | 1013.9 hPa | 0 mm | - | - | - |
| 1778140839 | 23.89° C | 88% | 1014 hPa | 0 mm | - | - | - |
| 1778136019 | 23.89° C | 88% | 1015 hPa | 0 mm | - | - | - |
| 1778133019 | 23.89° C | 88% | 1015.6 hPa | 0 mm | - | - | - |
| 1778131219 | 23.89° C | 88% | 1015.1 hPa | 0 mm | - | - | - |
| 1778129418 | 23.89° C | 88% | 1015.3 hPa | 0 mm | - | - | - |
| 1778126438 | 23.33° C | 88% | 1015.5 hPa | 0 mm | - | - | - |
| 1778121618 | 23.33° C | 87% | 1016.2 hPa | 0 mm | - | - | - |
| 1778120418 | 23.33° C | 87% | 1015.7 hPa | 0 mm | - | - | - |
| 1778119219 | 23.33° C | 87% | 1015 hPa | 0 mm | - | - | - |
| 1778113220 | 23.89° C | 85% | 1015.4 hPa | 0 mm | - | - | - |
| 1778108420 | 24.44° C | 84% | 1015.2 hPa | 0 mm | - | - | - |
| 1778106040 | 24.44° C | 84% | 1015.4 hPa | 0 mm | - | - | - |
| 1778103620 | 24.44° C | 84% | 1015.8 hPa | 0 mm | - | - | - |
| 1778100020 | 26.11° C | 79% | 1016.2 hPa | 0 mm | - | - | - |
| 1778099420 | 26.11° C | 79% | 1016.3 hPa | 0 mm | - | - | - |
| 1778097620 | 26.67° C | 77% | 1016.3 hPa | 0 mm | - | - | - |
| 1778088020 | 27.78° C | 73% | 1017.8 hPa | 0 mm | - | - | - |
| 1778086841 | 27.22° C | 73% | 1018.1 hPa | 0 mm | - | - | - |
| 1778085019 | 26.67° C | 75% | 1018.3 hPa | 0 mm | - | - | - |
| 1778081419 | 26.67° C | 75% | 1018.2 hPa | 0 mm | - | - | - |
| 1778080219 | 25.56° C | 77% | 1017.8 hPa | 0 mm | - | - | - |
| 1778068219 | 18.33° C | 92% | 1015.8 hPa | 0 mm | - | - | - |
| 1778065239 | 18.33° C | 92% | 1014.9 hPa | 0 mm | - | - | - |
| 1778054419 | 18.33° C | 91% | 1015.1 hPa | 0 mm | - | - | - |
* Rain latest hour (hover to see other rain measurements)
** Current wind speed in m/s (hover to see current wind gust speed)